Carlsbad, NM

5:39 AM MST on February 21, 2017 (GMT -0700)
Cavern City | | Change Station
Active Advisory: Fire Weather Watch

Elev 3294 ft 32.34 °N, 104.26 °W | Updated 46 minutes ago

Mostly Cloudy
Mostly Cloudy
43 °F
Feels Like 40 °F
N
5
Wind Variable Wind from ESE

Today
High -- | Low -- °F
--% Chance of Precip.
Yesterday
High -- | Low -- °F
Precip. -- in
Pressure 30.07 in
Visibility 10.0 miles
Clouds Clear
Windchill 40 °F
Dew Point 27 °F
Humidity 53%
Rainfall 0.00 in
Snow Depth Not available.
6:33 AM 5:48 PM
Waning Crescent, 25% visible
METAR KCNM 211153Z AUTO 11004KT 10SM CLR 06/M03 A3015 RMK AO2 SLP181 T00611028 10128 20044 53000 $
Pressure 30.07 in
Visibility 10.0 miles
Clouds Clear
Windchill 40 °F
Dew Point 27 °F
Humidity 53%
Rainfall 0.00 in
Snow Depth Not available.
6:33 AM 5:48 PM
Waning Crescent, 25% visible
METAR KCNM 211153Z AUTO 11004KT 10SM CLR 06/M03 A3015 RMK AO2 SLP181 T00611028 10128 20044 53000 $

Get Your Daily Forecast Email!

Thanks for signing up!

Be on the lookout for a verification email in your inbox.

You'll start receiving the daily forecast at 8 AM.

×

10-Day Weather Forecast

Almanac

Astronomy

Feb. 21, 2017 Rise Set
Actual Time
Civil Twilight
Nautical Twilight
Astronomical Twilight
Moon
Length of Visible Light
Length of Day
Tomorrow will be .
, % of the Moon is Illuminated

Today's Extremes

State Highs State Lows

Community

WunderPhotos

Upload Photos

1,962,540 photos uploaded!

WunderBlog® & News

Nearby

Air Quality

  Air Quality AQ Index Pollutant
Not available.

Snow Depth

Station Depth Elevation

Earthquake Activity

City Distance Mag. Time & Date
Minimum magnitude displayed is 2.5.

Coastal Water Temperatures

Place Temperature

Stations

Nearby Weather Stations

Station Location Temp. Windchill Dew Point Humidity Wind Precip. Elev Updated Type
                   

Watches & Warnings

Fire Weather Watch
Issued: 3:08 AM MST Feb. 21, 2017 – National Weather Service

... Fire Weather Watch in effect from Thursday morning through
Thursday evening for warm... windy and dry conditions for southeast
New Mexico... northwest Permian Basin and southward through the
upper trans Pecos and Davis Mountains...

* wind... west 20 to 25 mph

* humidity... near 10 percent

* temperatures... 10 to 15 degrees above normal

* impacts... any fires that develop will likely spread rapidly.
Outdoor burning is not recommended.

Precautionary/preparedness actions...

A Fire Weather Watch means that critical fire weather conditions
are forecast to occur. Listen for later forecasts and possible
red flag warnings.